sensor_id;sensor_type;location;lat;lon;timestamp;pressure;altitude;pressure_sealevel;temperature;humidity
69257;BME280;56376;53.356;-1.748;2023-05-01T00:01:31;99561.03;;;11.60;100.00
69257;BME280;56376;53.356;-1.748;2023-05-01T00:03:57;99560.09;;;11.61;100.00
69257;BME280;56376;53.356;-1.748;2023-05-01T00:06:22;99561.94;;;11.59;100.00
69257;BME280;56376;53.356;-1.748;2023-05-01T00:08:48;99556.78;;;11.58;100.00
69257;BME280;56376;53.356;-1.748;2023-05-01T00:11:13;99556.81;;;11.56;100.00
69257;BME280;56376;53.356;-1.748;2023-05-01T00:13:39;99555.97;;;11.56;100.00
69257;BME280;56376;53.356;-1.748;2023-05-01T00:16:09;99556.94;;;11.53;100.00
69257;BME280;56376;53.356;-1.748;2023-05-01T00:18:35;99547.53;;;11.49;100.00
69257;BME280;56376;53.356;-1.748;2023-05-01T00:21:00;99541.59;;;11.44;100.00
69257;BME280;56376;53.356;-1.748;2023-05-01T00:23:27;99536.50;;;11.41;100.00
69257;BME280;56376;53.356;-1.748;2023-05-01T00:25:52;99534.88;;;11.38;100.00
69257;BME280;56376;53.356;-1.748;2023-05-01T00:28:18;99536.75;;;11.35;100.00
69257;BME280;56376;53.356;-1.748;2023-05-01T00:30:43;99529.03;;;11.32;100.00
69257;BME280;56376;53.356;-1.748;2023-05-01T00:33:10;99524.00;;;11.27;100.00
69257;BME280;56376;53.356;-1.748;2023-05-01T00:35:35;99522.34;;;11.24;100.00
69257;BME280;56376;53.356;-1.748;2023-05-01T00:38:01;99517.16;;;11.23;100.00
69257;BME280;56376;53.356;-1.748;2023-05-01T00:40:26;99519.94;;;11.18;100.00
69257;BME280;56376;53.356;-1.748;2023-05-01T00:42:52;99515.66;;;11.17;100.00
69257;BME280;56376;53.356;-1.748;2023-05-01T00:45:18;99516.63;;;11.15;100.00
69257;BME280;56376;53.356;-1.748;2023-05-01T00:47:43;99495.09;;;11.08;100.00
69257;BME280;56376;53.356;-1.748;2023-05-01T00:50:09;99496.81;;;11.09;100.00
69257;BME280;56376;53.356;-1.748;2023-05-01T00:52:35;99496.22;;;11.01;100.00
69257;BME280;56376;53.356;-1.748;2023-05-01T00:55:01;99495.50;;;10.97;100.00
69257;BME280;56376;53.356;-1.748;2023-05-01T00:57:26;99493.59;;;11.01;100.00
69257;BME280;56376;53.356;-1.748;2023-05-01T00:59:52;99487.72;;;10.96;100.00
69257;BME280;56376;53.356;-1.748;2023-05-01T01:02:17;99493.13;;;10.91;100.00
69257;BME280;56376;53.356;-1.748;2023-05-01T01:04:44;99490.63;;;10.88;100.00
69257;BME280;56376;53.356;-1.748;2023-05-01T01:12:24;99487.28;;;10.85;100.00
69257;BME280;56376;53.356;-1.748;2023-05-01T01:17:30;99485.69;;;10.80;100.00
69257;BME280;56376;53.356;-1.748;2023-05-01T01:22:48;99480.41;;;10.82;100.00
69257;BME280;56376;53.356;-1.748;2023-05-01T01:25:39;99475.22;;;10.80;100.00
69257;BME280;56376;53.356;-1.748;2023-05-01T01:36:55;99466.00;;;10.72;100.00
69257;BME280;56376;53.356;-1.748;2023-05-01T01:39:42;99456.41;;;10.72;100.00
69257;BME280;56376;53.356;-1.748;2023-05-01T01:42:25;99469.41;;;10.74;100.00
69257;BME280;56376;53.356;-1.748;2023-05-01T01:44:53;99453.75;;;10.74;100.00
69257;BME280;56376;53.356;-1.748;2023-05-01T01:47:21;99465.91;;;10.73;100.00
69257;BME280;56376;53.356;-1.748;2023-05-01T01:49:51;99465.06;;;10.73;100.00
69257;BME280;56376;53.356;-1.748;2023-05-01T01:52:19;99463.31;;;10.73;100.00
69257;BME280;56376;53.356;-1.748;2023-05-01T01:54:55;99455.44;;;10.75;100.00
69257;BME280;56376;53.356;-1.748;2023-05-01T01:57:23;99457.91;;;10.78;100.00
69257;BME280;56376;53.356;-1.748;2023-05-01T01:59:50;99453.63;;;10.77;100.00
69257;BME280;56376;53.356;-1.748;2023-05-01T02:02:18;99445.81;;;10.75;100.00
69257;BME280;56376;53.356;-1.748;2023-05-01T02:04:45;99439.03;;;10.71;100.00
69257;BME280;56376;53.356;-1.748;2023-05-01T02:07:13;99448.59;;;10.71;100.00
69257;BME280;56376;53.356;-1.748;2023-05-01T02:09:40;99453.06;;;10.69;100.00
69257;BME280;56376;53.356;-1.748;2023-05-01T02:12:07;99443.47;;;10.69;100.00
69257;BME280;56376;53.356;-1.748;2023-05-01T02:14:34;99435.66;;;10.68;100.00
69257;BME280;56376;53.356;-1.748;2023-05-01T02:17:01;99436.50;;;10.68;100.00
69257;BME280;56376;53.356;-1.748;2023-05-01T02:19:27;99432.22;;;10.67;100.00
69257;BME280;56376;53.356;-1.748;2023-05-01T02:21:55;99435.66;;;10.68;100.00
69257;BME280;56376;53.356;-1.748;2023-05-01T02:24:23;99435.66;;;10.68;100.00
69257;BME280;56376;53.356;-1.748;2023-05-01T02:26:51;99422.69;;;10.66;100.00
69257;BME280;56376;53.356;-1.748;2023-05-01T02:29:18;99420.97;;;10.65;100.00
69257;BME280;56376;53.356;-1.748;2023-05-01T02:31:43;99414.03;;;10.64;100.00
69257;BME280;56376;53.356;-1.748;2023-05-01T02:34:09;99415.00;;;10.61;100.00
69257;BME280;56376;53.356;-1.748;2023-05-01T02:36:34;99418.59;;;10.59;100.00
69257;BME280;56376;53.356;-1.748;2023-05-01T02:39:00;99409.03;;;10.58;100.00
69257;BME280;56376;53.356;-1.748;2023-05-01T02:41:26;99406.50;;;10.56;100.00
69257;BME280;56376;53.356;-1.748;2023-05-01T02:43:56;99420.53;;;10.54;100.00
69257;BME280;56376;53.356;-1.748;2023-05-01T02:46:26;99419.69;;;10.53;100.00
69257;BME280;56376;53.356;-1.748;2023-05-01T02:48:53;99432.75;;;10.53;100.00
69257;BME280;56376;53.356;-1.748;2023-05-01T02:51:22;99425.88;;;10.51;100.00
69257;BME280;56376;53.356;-1.748;2023-05-01T02:53:48;99416.41;;;10.48;100.00
69257;BME280;56376;53.356;-1.748;2023-05-01T02:56:14;99414.63;;;10.49;100.00
69257;BME280;56376;53.356;-1.748;2023-05-01T02:58:40;99413.88;;;10.45;100.00
69257;BME280;56376;53.356;-1.748;2023-05-01T03:01:06;99416.56;;;10.44;100.00
69257;BME280;56376;53.356;-1.748;2023-05-01T03:03:31;99416.72;;;10.39;100.00
69257;BME280;56376;53.356;-1.748;2023-05-01T03:05:57;99417.63;;;10.38;100.00
69257;BME280;56376;53.356;-1.748;2023-05-01T03:08:22;99423.81;;;10.35;100.00
69257;BME280;56376;53.356;-1.748;2023-05-01T03:10:47;99413.50;;;10.32;100.00
69257;BME280;56376;53.356;-1.748;2023-05-01T03:13:13;99423.94;;;10.32;100.00
69257;BME280;56376;53.356;-1.748;2023-05-01T03:15:38;99424.84;;;10.31;100.00
69257;BME280;56376;53.356;-1.748;2023-05-01T03:18:04;99412.91;;;10.24;100.00
69257;BME280;56376;53.356;-1.748;2023-05-01T03:20:30;99417.28;;;10.24;100.00
69257;BME280;56376;53.356;-1.748;2023-05-01T03:22:56;99405.97;;;10.23;100.00
69257;BME280;56376;53.356;-1.748;2023-05-01T03:25:22;99409.56;;;10.21;100.00
69257;BME280;56376;53.356;-1.748;2023-05-01T03:27:47;99409.59;;;10.19;100.00
69257;BME280;56376;53.356;-1.748;2023-05-01T03:30:14;99410.56;;;10.16;100.00
69257;BME280;56376;53.356;-1.748;2023-05-01T03:32:40;99420.16;;;10.16;100.00
69257;BME280;56376;53.356;-1.748;2023-05-01T03:35:05;99408.97;;;10.12;100.00
69257;BME280;56376;53.356;-1.748;2023-05-01T03:37:32;99415.84;;;10.15;100.00
69257;BME280;56376;53.356;-1.748;2023-05-01T03:39:58;99421.06;;;10.15;100.00
69257;BME280;56376;53.356;-1.748;2023-05-01T03:42:23;99415.78;;;10.16;100.00
69257;BME280;56376;53.356;-1.748;2023-05-01T03:44:49;99415.75;;;10.18;100.00
69257;BME280;56376;53.356;-1.748;2023-05-01T03:47:14;99417.44;;;10.19;100.00
69257;BME280;56376;53.356;-1.748;2023-05-01T03:49:40;99411.38;;;10.18;100.00
69257;BME280;56376;53.356;-1.748;2023-05-01T03:52:07;99414.81;;;10.19;100.00
69257;BME280;56376;53.356;-1.748;2023-05-01T03:54:33;99420.88;;;10.19;100.00
69257;BME280;56376;53.356;-1.748;2023-05-01T03:56:58;99423.38;;;10.23;100.00
69257;BME280;56376;53.356;-1.748;2023-05-01T03:59:25;99424.31;;;10.22;100.00
69257;BME280;56376;53.356;-1.748;2023-05-01T04:01:51;99417.44;;;10.19;100.00
69257;BME280;56376;53.356;-1.748;2023-05-01T04:04:16;99421.00;;;10.16;100.00
69257;BME280;56376;53.356;-1.748;2023-05-01T04:06:42;99421.13;;;10.13;100.00
69257;BME280;56376;53.356;-1.748;2023-05-01T04:09:08;99424.00;;;10.06;100.00
69257;BME280;56376;53.356;-1.748;2023-05-01T04:11:33;99425.81;;;10.04;100.00
69257;BME280;56376;53.356;-1.748;2023-05-01T04:13:58;99425.81;;;10.04;100.00
69257;BME280;56376;53.356;-1.748;2023-05-01T04:16:24;99432.84;;;10.02;100.00
69257;BME280;56376;53.356;-1.748;2023-05-01T04:18:49;99415.53;;;9.99;100.00
69257;BME280;56376;53.356;-1.748;2023-05-01T04:21:15;99416.34;;;10.01;100.00
69257;BME280;56376;53.356;-1.748;2023-05-01T04:23:42;99419.75;;;10.03;100.00
69257;BME280;56376;53.356;-1.748;2023-05-01T04:26:08;99417.91;;;10.05;100.00
69257;BME280;56376;53.356;-1.748;2023-05-01T04:28:33;99416.94;;;10.08;100.00
69257;BME280;56376;53.356;-1.748;2023-05-01T04:30:58;99419.53;;;10.09;100.00
69257;BME280;56376;53.356;-1.748;2023-05-01T04:33:24;99421.16;;;10.12;100.00
69257;BME280;56376;53.356;-1.748;2023-05-01T04:35:49;99425.47;;;10.13;100.00
69257;BME280;56376;53.356;-1.748;2023-05-01T04:38:15;99420.25;;;10.13;100.00
69257;BME280;56376;53.356;-1.748;2023-05-01T04:40:40;99424.69;;;10.11;100.00
69257;BME280;56376;53.356;-1.748;2023-05-01T04:43:06;99423.94;;;10.07;100.00
69257;BME280;56376;53.356;-1.748;2023-05-01T04:45:31;99432.53;;;10.11;100.00
69257;BME280;56376;53.356;-1.748;2023-05-01T04:47:56;99434.19;;;10.13;100.00
69257;BME280;56376;53.356;-1.748;2023-05-01T04:50:22;99436.94;;;10.09;100.00
69257;BME280;56376;53.356;-1.748;2023-05-01T04:52:47;99436.13;;;10.07;100.00
69257;BME280;56376;53.356;-1.748;2023-05-01T04:55:12;99438.75;;;10.07;100.00
69257;BME280;56376;53.356;-1.748;2023-05-01T04:57:38;99439.75;;;10.03;100.00
69257;BME280;56376;53.356;-1.748;2023-05-01T05:00:04;99444.13;;;10.02;100.00
69257;BME280;56376;53.356;-1.748;2023-05-01T05:02:29;99443.31;;;10.00;100.00
69257;BME280;56376;53.356;-1.748;2023-05-01T05:04:55;99448.53;;;10.00;100.00
69257;BME280;56376;53.356;-1.748;2023-05-01T05:07:21;99435.47;;;10.02;100.00
69257;BME280;56376;53.356;-1.748;2023-05-01T05:09:47;99440.63;;;10.03;100.00
69257;BME280;56376;53.356;-1.748;2023-05-01T05:12:12;99447.50;;;10.06;100.00
69257;BME280;56376;53.356;-1.748;2023-05-01T05:14:39;99439.44;;;10.12;100.00
69257;BME280;56376;53.356;-1.748;2023-05-01T05:17:05;99435.28;;;10.06;100.00
69257;BME280;56376;53.356;-1.748;2023-05-01T05:19:30;99429.31;;;10.03;100.00
69257;BME280;56376;53.356;-1.748;2023-05-01T05:21:56;99434.53;;;10.03;100.00
69257;BME280;56376;53.356;-1.748;2023-05-01T05:24:22;99427.59;;;10.03;100.00
69257;BME280;56376;53.356;-1.748;2023-05-01T05:26:47;99432.72;;;10.05;100.00
69257;BME280;56376;53.356;-1.748;2023-05-01T05:29:13;99444.69;;;10.10;100.00
69257;BME280;56376;53.356;-1.748;2023-05-01T05:31:38;99444.88;;;10.06;100.00
69257;BME280;56376;53.356;-1.748;2023-05-01T05:34:04;99426.72;;;10.03;100.00
69257;BME280;56376;53.356;-1.748;2023-05-01T05:36:29;99442.44;;;10.01;100.00
69257;BME280;56376;53.356;-1.748;2023-05-01T05:38:55;99445.09;;;10.00;100.00
69257;BME280;56376;53.356;-1.748;2023-05-01T05:41:20;99438.97;;;10.01;100.00
69257;BME280;56376;53.356;-1.748;2023-05-01T05:43:45;99441.38;;;10.07;100.00
69257;BME280;56376;53.356;-1.748;2023-05-01T05:46:11;99451.91;;;10.04;100.00
69257;BME280;56376;53.356;-1.748;2023-05-01T05:48:36;99450.19;;;10.03;100.00
69257;BME280;56376;53.356;-1.748;2023-05-01T05:51:02;99453.69;;;10.03;100.00
69257;BME280;56376;53.356;-1.748;2023-05-01T05:53:27;99456.22;;;10.05;100.00
69257;BME280;56376;53.356;-1.748;2023-05-01T05:55:53;99448.38;;;10.05;100.00
69257;BME280;56376;53.356;-1.748;2023-05-01T05:58:18;99445.91;;;10.02;100.00
69257;BME280;56376;53.356;-1.748;2023-05-01T06:00:50;99456.28;;;10.03;100.00
69257;BME280;56376;53.356;-1.748;2023-05-01T06:03:17;99464.19;;;10.00;100.00
69257;BME280;56376;53.356;-1.748;2023-05-01T06:05:43;99455.53;;;10.00;100.00
69257;BME280;56376;53.356;-1.748;2023-05-01T06:08:09;99466.78;;;10.02;100.00
69257;BME280;56376;53.356;-1.748;2023-05-01T06:10:35;99464.97;;;10.04;100.00
69257;BME280;56376;53.356;-1.748;2023-05-01T06:13:04;99472.00;;;10.02;100.00
69257;BME280;56376;53.356;-1.748;2023-05-01T06:15:32;99470.22;;;10.02;100.00
69257;BME280;56376;53.356;-1.748;2023-05-01T06:17:57;99468.53;;;10.01;100.00
69257;BME280;56376;53.356;-1.748;2023-05-01T06:20:23;99476.22;;;10.06;100.00
69257;BME280;56376;53.356;-1.748;2023-05-01T06:22:48;99463.09;;;10.07;100.00
69257;BME280;56376;53.356;-1.748;2023-05-01T06:25:14;99468.16;;;10.12;100.00
69257;BME280;56376;53.356;-1.748;2023-05-01T06:27:39;99463.72;;;10.14;100.00
69257;BME280;56376;53.356;-1.748;2023-05-01T06:30:05;99467.88;;;10.19;100.00
69257;BME280;56376;53.356;-1.748;2023-05-01T06:32:30;99472.09;;;10.24;100.00
69257;BME280;56376;53.356;-1.748;2023-05-01T06:34:56;99471.16;;;10.25;100.00
69257;BME280;56376;53.356;-1.748;2023-05-01T06:37:21;99471.16;;;10.25;100.00
69257;BME280;56376;53.356;-1.748;2023-05-01T06:39:47;99468.53;;;10.26;100.00
69257;BME280;56376;53.356;-1.748;2023-05-01T06:42:12;99473.53;;;10.32;100.00
69257;BME280;56376;53.356;-1.748;2023-05-01T06:44:41;99477.97;;;10.30;100.00
69257;BME280;56376;53.356;-1.748;2023-05-01T06:47:07;99478.88;;;10.29;100.00
69257;BME280;56376;53.356;-1.748;2023-05-01T06:49:32;99482.47;;;10.25;100.00
69257;BME280;56376;53.356;-1.748;2023-05-01T06:51:58;99488.63;;;10.23;100.00
69257;BME280;56376;53.356;-1.748;2023-05-01T06:54:24;99486.22;;;10.18;100.00
69257;BME280;56376;53.356;-1.748;2023-05-01T06:56:51;99488.72;;;10.21;100.00
69257;BME280;56376;53.356;-1.748;2023-05-01T06:59:16;99488.59;;;10.24;100.00
69257;BME280;56376;53.356;-1.748;2023-05-01T07:01:42;99503.34;;;10.25;100.00
69257;BME280;56376;53.356;-1.748;2023-05-01T07:04:07;99497.34;;;10.23;100.00
69257;BME280;56376;53.356;-1.748;2023-05-01T07:06:32;99493.09;;;10.21;100.00
69257;BME280;56376;53.356;-1.748;2023-05-01T07:08:59;99491.31;;;10.21;100.00
69257;BME280;56376;53.356;-1.748;2023-05-01T07:11:24;99506.03;;;10.24;100.00
69257;BME280;56376;53.356;-1.748;2023-05-01T07:13:51;99503.41;;;10.24;100.00
69257;BME280;56376;53.356;-1.748;2023-05-01T07:16:16;99504.38;;;10.21;100.00
69257;BME280;56376;53.356;-1.748;2023-05-01T07:18:42;99511.25;;;10.24;100.00
69257;BME280;56376;53.356;-1.748;2023-05-01T07:21:07;99507.00;;;10.21;100.00
69257;BME280;56376;53.356;-1.748;2023-05-01T07:23:38;99504.13;;;10.29;100.00
69257;BME280;56376;53.356;-1.748;2023-05-01T07:26:04;99503.31;;;10.27;100.00
69257;BME280;56376;53.356;-1.748;2023-05-01T07:28:32;99505.91;;;10.27;100.00
69257;BME280;56376;53.356;-1.748;2023-05-01T07:30:57;99517.06;;;10.32;100.00
69257;BME280;56376;53.356;-1.748;2023-05-01T07:33:23;99520.34;;;10.38;100.00
69257;BME280;56376;53.356;-1.748;2023-05-01T07:35:50;99514.84;;;10.46;100.00
69257;BME280;56376;53.356;-1.748;2023-05-01T07:38:16;99529.25;;;10.56;100.00
69257;BME280;56376;53.356;-1.748;2023-05-01T07:40:41;99530.22;;;10.54;100.00
69257;BME280;56376;53.356;-1.748;2023-05-01T07:43:07;99525.00;;;10.54;100.00
69257;BME280;56376;53.356;-1.748;2023-05-01T07:45:35;99527.44;;;10.58;100.00
69257;BME280;56376;53.356;-1.748;2023-05-01T07:48:01;99536.81;;;10.64;100.00
69257;BME280;56376;53.356;-1.748;2023-05-01T07:50:26;99532.31;;;10.68;100.00
69257;BME280;56376;53.356;-1.748;2023-05-01T07:52:51;99523.22;;;10.78;100.00
69257;BME280;56376;53.356;-1.748;2023-05-01T07:55:17;99535.72;;;10.93;100.00
69257;BME280;56376;53.356;-1.748;2023-05-01T07:57:43;99537.88;;;11.05;100.00
69257;BME280;56376;53.356;-1.748;2023-05-01T08:00:09;99534.78;;;11.18;100.00
69257;BME280;56376;53.356;-1.748;2023-05-01T08:02:34;99529.53;;;11.19;100.00
69257;BME280;56376;53.356;-1.748;2023-05-01T08:05:00;99535.63;;;11.18;100.00
69257;BME280;56376;53.356;-1.748;2023-05-01T08:07:28;99535.59;;;11.20;100.00
69257;BME280;56376;53.356;-1.748;2023-05-01T08:09:53;99539.13;;;11.19;100.00
69257;BME280;56376;53.356;-1.748;2023-05-01T08:12:19;99546.00;;;11.21;100.00
69257;BME280;56376;53.356;-1.748;2023-05-01T08:14:44;99537.25;;;11.22;100.00
69257;BME280;56376;53.356;-1.748;2023-05-01T08:17:09;99548.63;;;11.21;100.00
69257;BME280;56376;53.356;-1.748;2023-05-01T08:19:35;99541.63;;;11.22;100.00
69257;BME280;56376;53.356;-1.748;2023-05-01T08:22:00;99543.13;;;11.27;100.00
69257;BME280;56376;53.356;-1.748;2023-05-01T08:24:25;99539.59;;;11.29;100.00
69257;BME280;56376;53.356;-1.748;2023-05-01T08:26:51;99547.41;;;11.30;100.00
69257;BME280;56376;53.356;-1.748;2023-05-01T08:29:17;99544.47;;;11.38;100.00
69257;BME280;56376;53.356;-1.748;2023-05-01T08:31:42;99555.94;;;11.57;100.00
69257;BME280;56376;53.356;-1.748;2023-05-01T08:34:08;99550.69;;;11.79;100.00
69257;BME280;56376;53.356;-1.748;2023-05-01T08:36:33;99544.44;;;12.04;100.00
69257;BME280;56376;53.356;-1.748;2023-05-01T08:38:58;99546.69;;;12.13;100.00
69257;BME280;56376;53.356;-1.748;2023-05-01T08:41:26;99555.72;;;12.26;100.00
69257;BME280;56376;53.356;-1.748;2023-05-01T08:43:52;99566.94;;;12.30;100.00
69257;BME280;56376;53.356;-1.748;2023-05-01T08:49:14;99565.47;;;12.23;100.00
69257;BME280;56376;53.356;-1.748;2023-05-01T08:51:41;99568.22;;;12.20;100.00
69257;BME280;56376;53.356;-1.748;2023-05-01T08:54:10;99564.16;;;12.12;100.00
69257;BME280;56376;53.356;-1.748;2023-05-01T08:56:36;99563.09;;;12.17;100.00
69257;BME280;56376;53.356;-1.748;2023-05-01T08:59:03;99580.78;;;12.32;100.00
69257;BME280;56376;53.356;-1.748;2023-05-01T09:01:30;99566.78;;;12.33;100.00
69257;BME280;56376;53.356;-1.748;2023-05-01T09:03:57;99572.59;;;12.40;100.00
69257;BME280;56376;53.356;-1.748;2023-05-01T09:06:24;99571.50;;;12.45;100.00
69257;BME280;56376;53.356;-1.748;2023-05-01T09:08:51;99576.00;;;12.42;100.00
69257;BME280;56376;53.356;-1.748;2023-05-01T09:11:16;99582.81;;;12.46;100.00
69257;BME280;56376;53.356;-1.748;2023-05-01T09:13:42;99589.75;;;12.47;100.00
69257;BME280;56376;53.356;-1.748;2023-05-01T09:16:08;99583.75;;;12.45;100.00
69257;BME280;56376;53.356;-1.748;2023-05-01T09:18:33;99588.13;;;12.44;100.00
69257;BME280;56376;53.356;-1.748;2023-05-01T09:20:59;99595.97;;;12.44;100.00
69257;BME280;56376;53.356;-1.748;2023-05-01T09:23:24;99593.25;;;12.47;100.00
69257;BME280;56376;53.356;-1.748;2023-05-01T09:25:50;99581.00;;;12.48;100.00
69257;BME280;56376;53.356;-1.748;2023-05-01T09:28:16;99590.50;;;12.50;100.00
69257;BME280;56376;53.356;-1.748;2023-05-01T09:30:41;99591.72;;;12.62;100.00
69257;BME280;56376;53.356;-1.748;2023-05-01T09:33:11;99593.28;;;12.66;100.00
69257;BME280;56376;53.356;-1.748;2023-05-01T09:35:53;99593.94;;;12.71;100.00
69257;BME280;56376;53.356;-1.748;2023-05-01T09:38:24;99588.34;;;12.79;100.00
69257;BME280;56376;53.356;-1.748;2023-05-01T09:40:52;99600.28;;;12.86;100.00
69257;BME280;56376;53.356;-1.748;2023-05-01T09:43:27;99596.59;;;12.90;100.00
69257;BME280;56376;53.356;-1.748;2023-05-01T09:46:03;99595.31;;;12.99;100.00
69257;BME280;56376;53.356;-1.748;2023-05-01T09:48:34;99599.38;;;13.06;100.00
69257;BME280;56376;53.356;-1.748;2023-05-01T09:51:00;99589.31;;;13.16;100.00
69257;BME280;56376;53.356;-1.748;2023-05-01T09:53:38;99598.63;;;13.23;100.00
69257;BME280;56376;53.356;-1.748;2023-05-01T09:56:04;99597.03;;;13.19;100.00
69257;BME280;56376;53.356;-1.748;2023-05-01T09:58:31;99604.75;;;13.22;100.00
69257;BME280;56376;53.356;-1.748;2023-05-01T10:00:56;99608.19;;;13.24;100.00
69257;BME280;56376;53.356;-1.748;2023-05-01T10:03:22;99607.22;;;13.27;100.00
69257;BME280;56376;53.356;-1.748;2023-05-01T10:05:47;99605.28;;;13.30;100.00
69257;BME280;56376;53.356;-1.748;2023-05-01T10:08:13;99611.31;;;13.32;100.00
69257;BME280;56376;53.356;-1.748;2023-05-01T10:10:40;99603.19;;;13.38;100.00
69257;BME280;56376;53.356;-1.748;2023-05-01T10:13:16;99602.41;;;13.36;100.00
69257;BME280;56376;53.356;-1.748;2023-05-01T10:15:43;99618.97;;;13.37;100.00
69257;BME280;56376;53.356;-1.748;2023-05-01T10:18:11;99618.97;;;13.37;97.87
69257;BME280;56376;53.356;-1.748;2023-05-01T10:20:38;99615.09;;;13.25;100.00
69257;BME280;56376;53.356;-1.748;2023-05-01T10:23:03;99618.56;;;13.27;100.00
69257;BME280;56376;53.356;-1.748;2023-05-01T10:25:30;99608.22;;;13.23;100.00
69257;BME280;56376;53.356;-1.748;2023-05-01T10:27:56;99609.88;;;13.25;100.00
69257;BME280;56376;53.356;-1.748;2023-05-01T10:30:22;99608.50;;;13.37;100.00
69257;BME280;56376;53.356;-1.748;2023-05-01T10:32:47;99605.50;;;13.45;100.00
69257;BME280;56376;53.356;-1.748;2023-05-01T10:35:40;99613.03;;;13.52;100.00
69257;BME280;56376;53.356;-1.748;2023-05-01T10:38:11;99627.63;;;13.58;100.00
69257;BME280;56376;53.356;-1.748;2023-05-01T10:43:22;99629.88;;;13.66;99.86
69257;BME280;56376;53.356;-1.748;2023-05-01T10:46:39;99633.88;;;13.55;100.00
69257;BME280;56376;53.356;-1.748;2023-05-01T10:51:23;99644.97;;;13.43;100.00
69257;BME280;56376;53.356;-1.748;2023-05-01T10:59:04;99661.91;;;13.15;100.00
69257;BME280;56376;53.356;-1.748;2023-05-01T11:04:04;99664.16;;;13.04;100.00
69257;BME280;56376;53.356;-1.748;2023-05-01T11:06:33;99655.56;;;13.01;100.00
69257;BME280;56376;53.356;-1.748;2023-05-01T11:08:59;99653.31;;;13.12;100.00
69257;BME280;56376;53.356;-1.748;2023-05-01T11:21:29;99653.75;;;13.97;100.00
69257;BME280;56376;53.356;-1.748;2023-05-01T11:23:59;99651.31;;;14.12;100.00
69257;BME280;56376;53.356;-1.748;2023-05-01T11:26:36;99650.09;;;14.19;100.00
69257;BME280;56376;53.356;-1.748;2023-05-01T11:29:07;99650.94;;;14.19;95.36
69257;BME280;56376;53.356;-1.748;2023-05-01T11:31:34;99656.25;;;14.18;97.63
69257;BME280;56376;53.356;-1.748;2023-05-01T11:34:00;99648.09;;;14.24;100.00
69257;BME280;56376;53.356;-1.748;2023-05-01T11:36:26;99642.59;;;14.28;100.00
69257;BME280;56376;53.356;-1.748;2023-05-01T11:38:56;99649.25;;;14.36;98.38
69257;BME280;56376;53.356;-1.748;2023-05-01T11:41:24;99649.56;;;14.47;95.90
69257;BME280;56376;53.356;-1.748;2023-05-01T11:43:51;99655.38;;;14.54;91.49
69257;BME280;56376;53.356;-1.748;2023-05-01T11:48:49;99655.25;;;14.74;92.21
69257;BME280;56376;53.356;-1.748;2023-05-01T11:51:14;99657.53;;;14.80;93.55
69257;BME280;56376;53.356;-1.748;2023-05-01T11:53:40;99652.06;;;14.85;97.56
69257;BME280;56376;53.356;-1.748;2023-05-01T11:56:26;99648.91;;;14.94;99.52
69257;BME280;56376;53.356;-1.748;2023-05-01T11:58:54;99656.69;;;14.97;98.94
69257;BME280;56376;53.356;-1.748;2023-05-01T12:01:19;99646.91;;;14.99;99.82
69257;BME280;56376;53.356;-1.748;2023-05-01T12:03:45;99658.28;;;15.00;95.91
69257;BME280;56376;53.356;-1.748;2023-05-01T12:06:11;99662.53;;;15.02;96.45
69257;BME280;56376;53.356;-1.748;2023-05-01T12:08:42;99673.81;;;15.04;94.56
69257;BME280;56376;53.356;-1.748;2023-05-01T12:11:08;99682.19;;;14.95;95.48
69257;BME280;56376;53.356;-1.748;2023-05-01T12:13:34;99683.59;;;14.85;96.10
69257;BME280;56376;53.356;-1.748;2023-05-01T12:15:59;99692.97;;;14.73;96.24
69257;BME280;56376;53.356;-1.748;2023-05-01T12:18:25;99694.81;;;14.54;98.11
69257;BME280;56376;53.356;-1.748;2023-05-01T12:20:52;99710.09;;;14.45;98.43
69257;BME280;56376;53.356;-1.748;2023-05-01T12:23:29;99700.78;;;14.38;96.21
69257;BME280;56376;53.356;-1.748;2023-05-01T12:25:54;99700.75;;;14.21;97.68
69257;BME280;56376;53.356;-1.748;2023-05-01T12:28:20;99699.50;;;14.11;100.00
69257;BME280;56376;53.356;-1.748;2023-05-01T12:30:47;99701.38;;;14.09;100.00
69257;BME280;56376;53.356;-1.748;2023-05-01T12:33:19;99690.78;;;14.10;100.00
69257;BME280;56376;53.356;-1.748;2023-05-01T12:35:46;99698.28;;;14.18;100.00
69257;BME280;56376;53.356;-1.748;2023-05-01T12:38:13;99697.25;;;14.39;100.00
69257;BME280;56376;53.356;-1.748;2023-05-01T12:40:48;99702.69;;;14.54;100.00
69257;BME280;56376;53.356;-1.748;2023-05-01T12:43:15;99690.88;;;14.62;100.00
69257;BME280;56376;53.356;-1.748;2023-05-01T12:45:40;99701.41;;;14.62;99.98
69257;BME280;56376;53.356;-1.748;2023-05-01T12:48:12;99699.06;;;14.56;100.00
69257;BME280;56376;53.356;-1.748;2023-05-01T12:50:39;99704.59;;;14.50;100.00
69257;BME280;56376;53.356;-1.748;2023-05-01T12:53:05;99713.66;;;14.44;99.38
69257;BME280;56376;53.356;-1.748;2023-05-01T12:55:44;99712.47;;;14.33;98.50
69257;BME280;56376;53.356;-1.748;2023-05-01T12:58:10;99720.94;;;14.20;98.87
69257;BME280;56376;53.356;-1.748;2023-05-01T13:03:12;99736.44;;;14.07;100.00
69257;BME280;56376;53.356;-1.748;2023-05-01T13:05:57;99732.69;;;13.94;100.00
69257;BME280;56376;53.356;-1.748;2023-05-01T13:08:28;99732.91;;;13.90;100.00
69257;BME280;56376;53.356;-1.748;2023-05-01T13:10:55;99729.78;;;13.81;97.78
69257;BME280;56376;53.356;-1.748;2023-05-01T13:13:32;99736.19;;;13.76;98.77
69257;BME280;56376;53.356;-1.748;2023-05-01T13:16:14;99728.63;;;13.68;99.85
69257;BME280;56376;53.356;-1.748;2023-05-01T13:18:45;99729.41;;;13.70;100.00
69257;BME280;56376;53.356;-1.748;2023-05-01T13:21:13;99737.94;;;13.75;100.00
69257;BME280;56376;53.356;-1.748;2023-05-01T13:23:40;99728.00;;;13.82;98.93
69257;BME280;56376;53.356;-1.748;2023-05-01T13:26:07;99735.72;;;13.85;99.49
69257;BME280;56376;53.356;-1.748;2023-05-01T13:28:43;99737.94;;;13.94;100.00
69257;BME280;56376;53.356;-1.748;2023-05-01T13:31:13;99731.41;;;14.03;96.96